sensor_id;sensor_type;location;lat;lon;timestamp;temperature;humidity
18880;DHT22;9572;52.378;13.404;2023-02-15T00:00:38;3.00;99.90
18880;DHT22;9572;52.378;13.404;2023-02-15T00:03:05;2.90;99.90
18880;DHT22;9572;52.378;13.404;2023-02-15T00:05:35;2.80;99.90
18880;DHT22;9572;52.378;13.404;2023-02-15T00:08:02;2.80;99.90
18880;DHT22;9572;52.378;13.404;2023-02-15T00:10:32;2.80;99.90
18880;DHT22;9572;52.378;13.404;2023-02-15T00:13:02;2.70;99.90
18880;DHT22;9572;52.378;13.404;2023-02-15T00:15:29;2.60;99.90
18880;DHT22;9572;52.378;13.404;2023-02-15T00:18:01;2.60;99.90
18880;DHT22;9572;52.378;13.404;2023-02-15T00:20:28;2.40;99.90
18880;DHT22;9572;52.378;13.404;2023-02-15T00:22:56;2.40;99.90
18880;DHT22;9572;52.378;13.404;2023-02-15T00:25:23;2.30;99.90
18880;DHT22;9572;52.378;13.404;2023-02-15T00:27:52;2.30;99.90
18880;DHT22;9572;52.378;13.404;2023-02-15T00:30:19;2.30;99.90
18880;DHT22;9572;52.378;13.404;2023-02-15T00:32:47;2.20;99.90
18880;DHT22;9572;52.378;13.404;2023-02-15T00:35:15;2.20;99.90
18880;DHT22;9572;52.378;13.404;2023-02-15T00:37:42;2.20;99.90
18880;DHT22;9572;52.378;13.404;2023-02-15T00:40:11;2.20;99.90
18880;DHT22;9572;52.378;13.404;2023-02-15T00:42:38;2.20;99.90
18880;DHT22;9572;52.378;13.404;2023-02-15T00:45:06;2.10;99.90
18880;DHT22;9572;52.378;13.404;2023-02-15T00:47:33;2.00;99.90
18880;DHT22;9572;52.378;13.404;2023-02-15T00:49:59;2.00;99.90
18880;DHT22;9572;52.378;13.404;2023-02-15T00:52:28;1.90;99.90
18880;DHT22;9572;52.378;13.404;2023-02-15T00:54:55;1.90;99.90
18880;DHT22;9572;52.378;13.404;2023-02-15T00:57:23;1.80;99.90
18880;DHT22;9572;52.378;13.404;2023-02-15T00:59:50;1.80;99.90
18880;DHT22;9572;52.378;13.404;2023-02-15T01:02:17;1.80;99.90
18880;DHT22;9572;52.378;13.404;2023-02-15T01:04:44;1.80;99.90
18880;DHT22;9572;52.378;13.404;2023-02-15T01:07:11;1.80;99.90
18880;DHT22;9572;52.378;13.404;2023-02-15T01:09:38;1.80;99.90
18880;DHT22;9572;52.378;13.404;2023-02-15T01:12:05;1.70;99.90
18880;DHT22;9572;52.378;13.404;2023-02-15T01:14:33;1.70;99.90
18880;DHT22;9572;52.378;13.404;2023-02-15T01:17:00;1.60;99.90
18880;DHT22;9572;52.378;13.404;2023-02-15T01:19:27;1.60;99.90
18880;DHT22;9572;52.378;13.404;2023-02-15T01:21:53;1.60;99.90
18880;DHT22;9572;52.378;13.404;2023-02-15T01:24:20;1.60;99.90
18880;DHT22;9572;52.378;13.404;2023-02-15T01:26:47;1.50;99.90
18880;DHT22;9572;52.378;13.404;2023-02-15T01:29:14;1.50;99.90
18880;DHT22;9572;52.378;13.404;2023-02-15T01:31:42;1.40;99.90
18880;DHT22;9572;52.378;13.404;2023-02-15T01:34:09;1.40;99.90
18880;DHT22;9572;52.378;13.404;2023-02-15T01:36:36;1.40;99.90
18880;DHT22;9572;52.378;13.404;2023-02-15T01:39:03;1.40;99.90
18880;DHT22;9572;52.378;13.404;2023-02-15T01:41:30;1.30;99.90
18880;DHT22;9572;52.378;13.404;2023-02-15T01:43:58;1.30;99.90
18880;DHT22;9572;52.378;13.404;2023-02-15T01:46:28;1.30;99.90
18880;DHT22;9572;52.378;13.404;2023-02-15T01:49:02;1.30;99.90
18880;DHT22;9572;52.378;13.404;2023-02-15T01:51:31;1.20;99.90
18880;DHT22;9572;52.378;13.404;2023-02-15T01:54:04;1.20;99.90
18880;DHT22;9572;52.378;13.404;2023-02-15T01:56:35;1.20;99.90
18880;DHT22;9572;52.378;13.404;2023-02-15T01:59:07;1.20;99.90
18880;DHT22;9572;52.378;13.404;2023-02-15T02:01:35;1.10;99.90
18880;DHT22;9572;52.378;13.404;2023-02-15T02:04:10;1.10;99.90
18880;DHT22;9572;52.378;13.404;2023-02-15T02:06:39;1.10;99.90
18880;DHT22;9572;52.378;13.404;2023-02-15T02:09:06;1.10;99.90
18880;DHT22;9572;52.378;13.404;2023-02-15T02:11:34;1.00;99.90
18880;DHT22;9572;52.378;13.404;2023-02-15T02:14:01;1.00;99.90
18880;DHT22;9572;52.378;13.404;2023-02-15T02:16:33;1.00;99.90
18880;DHT22;9572;52.378;13.404;2023-02-15T02:22:39;0.90;99.90
18880;DHT22;9572;52.378;13.404;2023-02-15T02:28:27;0.90;99.90
18880;DHT22;9572;52.378;13.404;2023-02-15T02:34:01;1.00;99.90
18880;DHT22;9572;52.378;13.404;2023-02-15T02:36:35;1.00;99.90
18880;DHT22;9572;52.378;13.404;2023-02-15T02:39:12;1.00;99.90
18880;DHT22;9572;52.378;13.404;2023-02-15T02:41:47;1.00;99.90
18880;DHT22;9572;52.378;13.404;2023-02-15T02:44:20;1.10;99.90
18880;DHT22;9572;52.378;13.404;2023-02-15T02:46:53;1.00;99.90
18880;DHT22;9572;52.378;13.404;2023-02-15T02:49:33;1.00;99.90
18880;DHT22;9572;52.378;13.404;2023-02-15T02:52:00;0.90;99.90
18880;DHT22;9572;52.378;13.404;2023-02-15T02:54:28;0.90;99.90
18880;DHT22;9572;52.378;13.404;2023-02-15T02:56:56;0.90;99.90
18880;DHT22;9572;52.378;13.404;2023-02-15T02:59:30;0.90;99.90
18880;DHT22;9572;52.378;13.404;2023-02-15T03:02:01;0.90;99.90
18880;DHT22;9572;52.378;13.404;2023-02-15T03:04:34;0.90;99.90
18880;DHT22;9572;52.378;13.404;2023-02-15T03:07:04;0.90;99.90
18880;DHT22;9572;52.378;13.404;2023-02-15T03:09:36;0.80;99.90
18880;DHT22;9572;52.378;13.404;2023-02-15T03:12:09;0.80;99.90
18880;DHT22;9572;52.378;13.404;2023-02-15T03:14:38;0.90;99.90
18880;DHT22;9572;52.378;13.404;2023-02-15T03:17:06;0.90;99.90
18880;DHT22;9572;52.378;13.404;2023-02-15T03:19:37;0.90;99.90
18880;DHT22;9572;52.378;13.404;2023-02-15T03:22:06;0.80;99.90
18880;DHT22;9572;52.378;13.404;2023-02-15T03:24:37;0.80;99.90
18880;DHT22;9572;52.378;13.404;2023-02-15T03:27:09;0.80;99.90
18880;DHT22;9572;52.378;13.404;2023-02-15T03:29:37;0.80;99.90
18880;DHT22;9572;52.378;13.404;2023-02-15T03:32:06;0.70;99.90
18880;DHT22;9572;52.378;13.404;2023-02-15T03:34:36;0.70;99.90
18880;DHT22;9572;52.378;13.404;2023-02-15T03:37:07;0.70;99.90
18880;DHT22;9572;52.378;13.404;2023-02-15T03:39:39;0.60;99.90
18880;DHT22;9572;52.378;13.404;2023-02-15T03:42:11;0.60;99.90
18880;DHT22;9572;52.378;13.404;2023-02-15T03:44:47;0.60;99.90
18880;DHT22;9572;52.378;13.404;2023-02-15T03:47:18;0.60;99.90
18880;DHT22;9572;52.378;13.404;2023-02-15T03:49:50;0.60;99.90
18880;DHT22;9572;52.378;13.404;2023-02-15T03:52:21;0.60;99.90
18880;DHT22;9572;52.378;13.404;2023-02-15T03:54:47;0.60;99.90
18880;DHT22;9572;52.378;13.404;2023-02-15T03:57:18;0.60;99.90
18880;DHT22;9572;52.378;13.404;2023-02-15T04:00:06;0.60;99.90
18880;DHT22;9572;52.378;13.404;2023-02-15T04:03:07;0.60;99.90
18880;DHT22;9572;52.378;13.404;2023-02-15T04:05:37;0.60;99.90
18880;DHT22;9572;52.378;13.404;2023-02-15T04:08:04;0.60;99.90
18880;DHT22;9572;52.378;13.404;2023-02-15T04:10:31;0.60;99.90
18880;DHT22;9572;52.378;13.404;2023-02-15T04:13:15;0.60;99.90
18880;DHT22;9572;52.378;13.404;2023-02-15T04:15:42;0.50;99.90
18880;DHT22;9572;52.378;13.404;2023-02-15T04:18:26;0.50;99.90
18880;DHT22;9572;52.378;13.404;2023-02-15T04:21:12;0.50;99.90
18880;DHT22;9572;52.378;13.404;2023-02-15T04:23:56;0.40;99.90
18880;DHT22;9572;52.378;13.404;2023-02-15T04:26:40;0.40;99.90
18880;DHT22;9572;52.378;13.404;2023-02-15T04:29:07;0.40;99.90
18880;DHT22;9572;52.378;13.404;2023-02-15T04:31:34;0.40;99.90
18880;DHT22;9572;52.378;13.404;2023-02-15T04:34:01;0.30;99.90
18880;DHT22;9572;52.378;13.404;2023-02-15T04:36:29;0.40;99.90
18880;DHT22;9572;52.378;13.404;2023-02-15T04:38:56;0.30;99.90
18880;DHT22;9572;52.378;13.404;2023-02-15T04:41:23;0.30;99.90
18880;DHT22;9572;52.378;13.404;2023-02-15T04:43:50;0.30;99.90
18880;DHT22;9572;52.378;13.404;2023-02-15T04:46:16;0.20;99.90
18880;DHT22;9572;52.378;13.404;2023-02-15T04:48:43;0.20;99.90
18880;DHT22;9572;52.378;13.404;2023-02-15T04:51:10;0.20;99.90
18880;DHT22;9572;52.378;13.404;2023-02-15T04:53:38;0.20;99.90
18880;DHT22;9572;52.378;13.404;2023-02-15T04:56:05;0.20;99.90
18880;DHT22;9572;52.378;13.404;2023-02-15T04:58:32;0.20;99.90
18880;DHT22;9572;52.378;13.404;2023-02-15T05:01:00;0.20;99.90
18880;DHT22;9572;52.378;13.404;2023-02-15T05:03:27;0.20;99.90
18880;DHT22;9572;52.378;13.404;2023-02-15T05:05:54;0.20;99.90
18880;DHT22;9572;52.378;13.404;2023-02-15T05:08:21;0.30;99.90
18880;DHT22;9572;52.378;13.404;2023-02-15T05:10:49;0.30;99.90
18880;DHT22;9572;52.378;13.404;2023-02-15T05:13:16;0.20;99.90
18880;DHT22;9572;52.378;13.404;2023-02-15T05:15:47;0.20;99.90
18880;DHT22;9572;52.378;13.404;2023-02-15T05:18:15;0.20;99.90
18880;DHT22;9572;52.378;13.404;2023-02-15T05:20:42;0.30;99.90
18880;DHT22;9572;52.378;13.404;2023-02-15T05:23:09;0.20;99.90
18880;DHT22;9572;52.378;13.404;2023-02-15T05:25:36;0.30;99.90
18880;DHT22;9572;52.378;13.404;2023-02-15T05:28:23;0.20;99.90
18880;DHT22;9572;52.378;13.404;2023-02-15T05:31:02;0.20;99.90
18880;DHT22;9572;52.378;13.404;2023-02-15T05:33:29;0.20;99.90
18880;DHT22;9572;52.378;13.404;2023-02-15T05:35:56;0.30;99.90
18880;DHT22;9572;52.378;13.404;2023-02-15T05:38:23;0.20;99.90
18880;DHT22;9572;52.378;13.404;2023-02-15T05:40:50;0.20;99.90
18880;DHT22;9572;52.378;13.404;2023-02-15T05:43:17;0.20;99.90
18880;DHT22;9572;52.378;13.404;2023-02-15T05:45:46;0.30;99.90
18880;DHT22;9572;52.378;13.404;2023-02-15T05:48:14;0.20;99.90
18880;DHT22;9572;52.378;13.404;2023-02-15T05:50:41;0.10;99.90
18880;DHT22;9572;52.378;13.404;2023-02-15T05:53:08;0.20;99.90
18880;DHT22;9572;52.378;13.404;2023-02-15T05:55:37;0.00;99.90
18880;DHT22;9572;52.378;13.404;2023-02-15T05:58:04;-0.10;99.90
18880;DHT22;9572;52.378;13.404;2023-02-15T06:00:31;-0.20;99.90
18880;DHT22;9572;52.378;13.404;2023-02-15T06:02:59;-0.20;99.90
18880;DHT22;9572;52.378;13.404;2023-02-15T06:05:26;-0.30;99.90
18880;DHT22;9572;52.378;13.404;2023-02-15T06:07:53;-0.30;99.90
18880;DHT22;9572;52.378;13.404;2023-02-15T06:10:20;-0.40;99.90
18880;DHT22;9572;52.378;13.404;2023-02-15T06:12:46;-0.40;99.90
18880;DHT22;9572;52.378;13.404;2023-02-15T06:15:13;-0.30;99.90
18880;DHT22;9572;52.378;13.404;2023-02-15T06:17:41;-0.20;99.90
18880;DHT22;9572;52.378;13.404;2023-02-15T06:20:10;-0.10;99.90
18880;DHT22;9572;52.378;13.404;2023-02-15T06:22:37;-0.10;99.90
18880;DHT22;9572;52.378;13.404;2023-02-15T06:25:05;-0.20;99.90
18880;DHT22;9572;52.378;13.404;2023-02-15T06:27:35;-0.30;99.90
18880;DHT22;9572;52.378;13.404;2023-02-15T06:30:02;-0.30;99.90
18880;DHT22;9572;52.378;13.404;2023-02-15T06:32:29;-0.30;99.90
18880;DHT22;9572;52.378;13.404;2023-02-15T06:34:56;-0.30;99.90
18880;DHT22;9572;52.378;13.404;2023-02-15T06:37:24;-0.30;99.90
18880;DHT22;9572;52.378;13.404;2023-02-15T06:39:51;-0.30;99.90
18880;DHT22;9572;52.378;13.404;2023-02-15T06:42:18;-0.30;99.90
18880;DHT22;9572;52.378;13.404;2023-02-15T06:44:45;-0.30;99.90
18880;DHT22;9572;52.378;13.404;2023-02-15T06:47:12;-0.30;99.90
18880;DHT22;9572;52.378;13.404;2023-02-15T06:49:39;-0.20;99.90
18880;DHT22;9572;52.378;13.404;2023-02-15T06:52:06;0.00;99.90
18880;DHT22;9572;52.378;13.404;2023-02-15T06:54:34;0.00;99.90
18880;DHT22;9572;52.378;13.404;2023-02-15T06:57:01;0.00;99.90
18880;DHT22;9572;52.378;13.404;2023-02-15T06:59:28;-0.10;99.90
18880;DHT22;9572;52.378;13.404;2023-02-15T07:01:55;-0.10;99.90
18880;DHT22;9572;52.378;13.404;2023-02-15T07:04:21;-0.10;99.90
18880;DHT22;9572;52.378;13.404;2023-02-15T07:06:48;-0.20;99.90
18880;DHT22;9572;52.378;13.404;2023-02-15T07:09:15;-0.20;99.90
18880;DHT22;9572;52.378;13.404;2023-02-15T07:11:44;-0.10;99.90
18880;DHT22;9572;52.378;13.404;2023-02-15T07:14:28;0.00;99.90
18880;DHT22;9572;52.378;13.404;2023-02-15T07:16:55;0.00;99.90
18880;DHT22;9572;52.378;13.404;2023-02-15T07:19:21;0.10;99.90
18880;DHT22;9572;52.378;13.404;2023-02-15T07:21:48;-0.10;99.90
18880;DHT22;9572;52.378;13.404;2023-02-15T07:24:15;-0.10;99.90
18880;DHT22;9572;52.378;13.404;2023-02-15T07:26:43;-0.20;99.90
18880;DHT22;9572;52.378;13.404;2023-02-15T07:29:10;-0.20;99.90
18880;DHT22;9572;52.378;13.404;2023-02-15T07:31:37;-0.20;99.90
18880;DHT22;9572;52.378;13.404;2023-02-15T07:34:05;-0.10;99.90
18880;DHT22;9572;52.378;13.404;2023-02-15T07:36:32;-0.10;99.90
18880;DHT22;9572;52.378;13.404;2023-02-15T07:38:59;0.00;99.90
18880;DHT22;9572;52.378;13.404;2023-02-15T07:41:26;0.10;99.90
18880;DHT22;9572;52.378;13.404;2023-02-15T07:43:54;0.10;99.90
18880;DHT22;9572;52.378;13.404;2023-02-15T07:46:21;0.00;99.90
18880;DHT22;9572;52.378;13.404;2023-02-15T07:48:48;-0.10;99.90
18880;DHT22;9572;52.378;13.404;2023-02-15T07:51:16;0.10;99.90
18880;DHT22;9572;52.378;13.404;2023-02-15T07:53:43;0.30;99.90
18880;DHT22;9572;52.378;13.404;2023-02-15T07:56:12;0.40;99.90
18880;DHT22;9572;52.378;13.404;2023-02-15T07:58:39;0.40;99.90
18880;DHT22;9572;52.378;13.404;2023-02-15T08:01:22;0.50;99.90
18880;DHT22;9572;52.378;13.404;2023-02-15T08:03:49;0.60;99.90
18880;DHT22;9572;52.378;13.404;2023-02-15T08:06:17;0.50;99.90
18880;DHT22;9572;52.378;13.404;2023-02-15T08:08:44;0.50;99.90
18880;DHT22;9572;52.378;13.404;2023-02-15T08:11:16;0.70;99.90
18880;DHT22;9572;52.378;13.404;2023-02-15T08:13:55;0.70;99.90
18880;DHT22;9572;52.378;13.404;2023-02-15T08:16:28;0.60;99.90
18880;DHT22;9572;52.378;13.404;2023-02-15T08:18:56;0.70;99.90
18880;DHT22;9572;52.378;13.404;2023-02-15T08:21:26;0.80;99.90
18880;DHT22;9572;52.378;13.404;2023-02-15T08:23:53;0.80;99.90
18880;DHT22;9572;52.378;13.404;2023-02-15T08:26:20;0.90;99.90
18880;DHT22;9572;52.378;13.404;2023-02-15T08:28:47;0.90;99.90
18880;DHT22;9572;52.378;13.404;2023-02-15T08:31:16;0.80;99.90
18880;DHT22;9572;52.378;13.404;2023-02-15T08:33:45;0.60;99.90
18880;DHT22;9572;52.378;13.404;2023-02-15T08:36:13;0.60;99.90
18880;DHT22;9572;52.378;13.404;2023-02-15T08:38:41;0.50;99.90
18880;DHT22;9572;52.378;13.404;2023-02-15T08:41:13;0.50;99.90
18880;DHT22;9572;52.378;13.404;2023-02-15T08:43:41;0.50;99.90
18880;DHT22;9572;52.378;13.404;2023-02-15T08:46:09;0.60;99.90
18880;DHT22;9572;52.378;13.404;2023-02-15T08:48:36;0.70;99.90
18880;DHT22;9572;52.378;13.404;2023-02-15T08:51:09;0.90;99.90
18880;DHT22;9572;52.378;13.404;2023-02-15T08:53:38;0.90;99.90
18880;DHT22;9572;52.378;13.404;2023-02-15T08:56:05;0.90;99.90
18880;DHT22;9572;52.378;13.404;2023-02-15T08:58:34;1.00;99.90
18880;DHT22;9572;52.378;13.404;2023-02-15T09:01:07;1.10;99.90
18880;DHT22;9572;52.378;13.404;2023-02-15T09:03:34;1.30;99.90
18880;DHT22;9572;52.378;13.404;2023-02-15T09:06:01;1.40;99.90
18880;DHT22;9572;52.378;13.404;2023-02-15T09:08:30;1.50;99.90
18880;DHT22;9572;52.378;13.404;2023-02-15T09:11:05;1.60;99.90
18880;DHT22;9572;52.378;13.404;2023-02-15T09:13:32;1.70;99.90
18880;DHT22;9572;52.378;13.404;2023-02-15T09:16:00;1.60;99.90
18880;DHT22;9572;52.378;13.404;2023-02-15T09:18:27;1.70;99.90
18880;DHT22;9572;52.378;13.404;2023-02-15T09:20:54;1.70;99.90
18880;DHT22;9572;52.378;13.404;2023-02-15T09:23:21;1.70;99.90
18880;DHT22;9572;52.378;13.404;2023-02-15T09:25:50;1.90;99.90
18880;DHT22;9572;52.378;13.404;2023-02-15T09:28:17;2.00;99.90
18880;DHT22;9572;52.378;13.404;2023-02-15T09:30:43;2.10;99.90
18880;DHT22;9572;52.378;13.404;2023-02-15T09:33:10;2.10;99.90
18880;DHT22;9572;52.378;13.404;2023-02-15T09:35:37;2.00;99.90
18880;DHT22;9572;52.378;13.404;2023-02-15T09:38:04;2.30;99.90
18880;DHT22;9572;52.378;13.404;2023-02-15T09:40:35;2.30;99.90
18880;DHT22;9572;52.378;13.404;2023-02-15T09:43:25;2.40;99.90
18880;DHT22;9572;52.378;13.404;2023-02-15T09:48:48;2.40;99.90
18880;DHT22;9572;52.378;13.404;2023-02-15T09:51:38;2.40;99.90
18880;DHT22;9572;52.378;13.404;2023-02-15T09:54:37;2.40;99.90
18880;DHT22;9572;52.378;13.404;2023-02-15T09:57:10;2.60;99.90
18880;DHT22;9572;52.378;13.404;2023-02-15T09:59:50;2.60;99.90
18880;DHT22;9572;52.378;13.404;2023-02-15T10:02:31;2.60;99.90
18880;DHT22;9572;52.378;13.404;2023-02-15T10:05:15;2.60;99.90
18880;DHT22;9572;52.378;13.404;2023-02-15T10:08:14;2.60;99.90
18880;DHT22;9572;52.378;13.404;2023-02-15T10:10:51;2.70;99.90
18880;DHT22;9572;52.378;13.404;2023-02-15T10:13:29;2.90;99.90
18880;DHT22;9572;52.378;13.404;2023-02-15T10:16:10;3.00;99.90
18880;DHT22;9572;52.378;13.404;2023-02-15T10:18:55;3.10;99.90
18880;DHT22;9572;52.378;13.404;2023-02-15T10:21:34;3.20;99.90
18880;DHT22;9572;52.378;13.404;2023-02-15T10:24:21;3.50;99.90
18880;DHT22;9572;52.378;13.404;2023-02-15T10:26:54;3.40;99.90
18880;DHT22;9572;52.378;13.404;2023-02-15T10:29:30;3.40;99.90
18880;DHT22;9572;52.378;13.404;2023-02-15T10:32:10;3.40;99.90
18880;DHT22;9572;52.378;13.404;2023-02-15T10:34:47;3.50;99.90
18880;DHT22;9572;52.378;13.404;2023-02-15T10:37:39;3.60;99.90
18880;DHT22;9572;52.378;13.404;2023-02-15T10:40:15;3.80;99.90
18880;DHT22;9572;52.378;13.404;2023-02-15T10:42:57;4.00;99.90
18880;DHT22;9572;52.378;13.404;2023-02-15T10:45:40;3.80;99.90
18880;DHT22;9572;52.378;13.404;2023-02-15T10:48:26;3.90;99.90
18880;DHT22;9572;52.378;13.404;2023-02-15T10:50:59;3.90;99.90
18880;DHT22;9572;52.378;13.404;2023-02-15T10:53:45;3.90;99.90
18880;DHT22;9572;52.378;13.404;2023-02-15T10:56:20;4.00;99.90
18880;DHT22;9572;52.378;13.404;2023-02-15T10:59:03;4.10;99.90
18880;DHT22;9572;52.378;13.404;2023-02-15T11:01:34;4.00;99.90
18880;DHT22;9572;52.378;13.404;2023-02-15T11:07:08;4.30;99.90
18880;DHT22;9572;52.378;13.404;2023-02-15T11:09:40;4.30;99.90
18880;DHT22;9572;52.378;13.404;2023-02-15T11:12:11;4.40;99.90
18880;DHT22;9572;52.378;13.404;2023-02-15T11:14:44;4.50;99.90
18880;DHT22;9572;52.378;13.404;2023-02-15T11:17:17;4.30;99.90
18880;DHT22;9572;52.378;13.404;2023-02-15T11:19:54;4.40;99.90
18880;DHT22;9572;52.378;13.404;2023-02-15T11:22:22;4.50;99.90
18880;DHT22;9572;52.378;13.404;2023-02-15T11:24:49;4.50;99.90
18880;DHT22;9572;52.378;13.404;2023-02-15T11:27:21;4.60;99.90
18880;DHT22;9572;52.378;13.404;2023-02-15T11:29:55;4.50;99.90
18880;DHT22;9572;52.378;13.404;2023-02-15T11:32:26;4.50;99.90
18880;DHT22;9572;52.378;13.404;2023-02-15T11:34:58;4.50;99.90
18880;DHT22;9572;52.378;13.404;2023-02-15T11:37:31;4.60;99.90
18880;DHT22;9572;52.378;13.404;2023-02-15T11:40:01;4.60;99.90
18880;DHT22;9572;52.378;13.404;2023-02-15T11:42:31;4.70;99.90
18880;DHT22;9572;52.378;13.404;2023-02-15T11:45:02;4.80;99.90
18880;DHT22;9572;52.378;13.404;2023-02-15T11:47:31;4.90;99.90
18880;DHT22;9572;52.378;13.404;2023-02-15T11:49:59;4.90;99.90
18880;DHT22;9572;52.378;13.404;2023-02-15T11:52:26;5.00;99.90
18880;DHT22;9572;52.378;13.404;2023-02-15T11:54:53;5.00;99.90
18880;DHT22;9572;52.378;13.404;2023-02-15T11:57:23;5.10;99.90
18880;DHT22;9572;52.378;13.404;2023-02-15T11:59:56;5.10;99.90
18880;DHT22;9572;52.378;13.404;2023-02-15T12:02:24;5.20;99.90
18880;DHT22;9572;52.378;13.404;2023-02-15T12:04:54;5.30;99.90
18880;DHT22;9572;52.378;13.404;2023-02-15T12:07:26;5.40;99.90
18880;DHT22;9572;52.378;13.404;2023-02-15T12:10:00;5.40;99.90
18880;DHT22;9572;52.378;13.404;2023-02-15T12:12:33;5.50;99.90
18880;DHT22;9572;52.378;13.404;2023-02-15T12:15:03;5.70;99.90
18880;DHT22;9572;52.378;13.404;2023-02-15T12:17:33;5.80;99.90
18880;DHT22;9572;52.378;13.404;2023-02-15T12:20:02;5.90;99.90
18880;DHT22;9572;52.378;13.404;2023-02-15T12:22:33;6.10;99.90
18880;DHT22;9572;52.378;13.404;2023-02-15T12:25:04;6.20;99.90
18880;DHT22;9572;52.378;13.404;2023-02-15T12:27:47;6.30;99.90
18880;DHT22;9572;52.378;13.404;2023-02-15T12:30:19;6.40;99.90
18880;DHT22;9572;52.378;13.404;2023-02-15T12:32:49;6.60;99.90
18880;DHT22;9572;52.378;13.404;2023-02-15T12:35:29;6.70;99.90
18880;DHT22;9572;52.378;13.404;2023-02-15T12:38:02;6.80;99.90
18880;DHT22;9572;52.378;13.404;2023-02-15T12:40:31;6.90;99.90
18880;DHT22;9572;52.378;13.404;2023-02-15T12:42:59;7.00;99.90
18880;DHT22;9572;52.378;13.404;2023-02-15T12:45:28;7.20;99.90
18880;DHT22;9572;52.378;13.404;2023-02-15T12:48:09;7.50;99.90
18880;DHT22;9572;52.378;13.404;2023-02-15T12:50:40;7.70;99.90
18880;DHT22;9572;52.378;13.404;2023-02-15T12:53:14;7.90;99.90
18880;DHT22;9572;52.378;13.404;2023-02-15T12:55:52;8.10;99.90
18880;DHT22;9572;52.378;13.404;2023-02-15T12:58:20;8.30;99.90
18880;DHT22;9572;52.378;13.404;2023-02-15T13:01:02;8.50;99.90
18880;DHT22;9572;52.378;13.404;2023-02-15T13:03:30;8.70;99.90
18880;DHT22;9572;52.378;13.404;2023-02-15T13:05:57;8.70;99.90
18880;DHT22;9572;52.378;13.404;2023-02-15T13:08:30;8.70;99.90
18880;DHT22;9572;52.378;13.404;2023-02-15T13:11:00;8.80;99.90
18880;DHT22;9572;52.378;13.404;2023-02-15T13:13:29;8.80;99.90
18880;DHT22;9572;52.378;13.404;2023-02-15T13:15:59;8.90;99.90
18880;DHT22;9572;52.378;13.404;2023-02-15T13:18:31;8.90;99.90
18880;DHT22;9572;52.378;13.404;2023-02-15T13:21:10;9.10;99.90
18880;DHT22;9572;52.378;13.404;2023-02-15T13:23:42;9.40;99.90
18880;DHT22;9572;52.378;13.404;2023-02-15T13:26:14;9.80;99.90
18880;DHT22;9572;52.378;13.404;2023-02-15T13:28:45;10.40;99.90
18880;DHT22;9572;52.378;13.404;2023-02-15T13:31:14;11.10;99.90
18880;DHT22;9572;52.378;13.404;2023-02-15T13:33:44;12.10;99.90
18880;DHT22;9572;52.378;13.404;2023-02-15T13:36:18;12.60;99.90
18880;DHT22;9572;52.378;13.404;2023-02-15T13:39:04;12.80;99.90
18880;DHT22;9572;52.378;13.404;2023-02-15T13:41:47;12.70;99.90
18880;DHT22;9572;52.378;13.404;2023-02-15T13:44:24;12.40;99.90
18880;DHT22;9572;52.378;13.404;2023-02-15T13:47:05;12.60;99.90
18880;DHT22;9572;52.378;13.404;2023-02-15T13:49:45;12.70;99.90
18880;DHT22;9572;52.378;13.404;2023-02-15T13:52:19;12.80;99.90
18880;DHT22;9572;52.378;13.404;2023-02-15T13:55:20;12.70;99.90
18880;DHT22;9572;52.378;13.404;2023-02-15T14:01:01;13.00;99.90
18880;DHT22;9572;52.378;13.404;2023-02-15T14:03:59;13.10;99.90
18880;DHT22;9572;52.378;13.404;2023-02-15T14:06:44;12.80;99.90
18880;DHT22;9572;52.378;13.404;2023-02-15T14:09:23;12.50;99.90
18880;DHT22;9572;52.378;13.404;2023-02-15T14:12:01;12.30;99.90
18880;DHT22;9572;52.378;13.404;2023-02-15T14:14:42;12.10;99.90
18880;DHT22;9572;52.378;13.404;2023-02-15T14:17:18;12.00;99.90
18880;DHT22;9572;52.378;13.404;2023-02-15T14:19:52;11.90;99.90
18880;DHT22;9572;52.378;13.404;2023-02-15T14:22:27;12.00;99.90
18880;DHT22;9572;52.378;13.404;2023-02-15T14:25:11;12.10;99.90
18880;DHT22;9572;52.378;13.404;2023-02-15T14:27:50;12.30;99.90
18880;DHT22;9572;52.378;13.404;2023-02-15T14:30:22;12.50;99.90
18880;DHT22;9572;52.378;13.404;2023-02-15T14:32:52;12.50;99.90
18880;DHT22;9572;52.378;13.404;2023-02-15T14:35:23;12.60;99.90
18880;DHT22;9572;52.378;13.404;2023-02-15T14:37:58;12.50;99.90
18880;DHT22;9572;52.378;13.404;2023-02-15T14:40:34;12.30;99.90
18880;DHT22;9572;52.378;13.404;2023-02-15T14:43:30;12.20;99.90
18880;DHT22;9572;52.378;13.404;2023-02-15T14:46:02;12.20;99.90
18880;DHT22;9572;52.378;13.404;2023-02-15T14:48:31;12.30;99.90
18880;DHT22;9572;52.378;13.404;2023-02-15T14:50:59;12.20;99.90
18880;DHT22;9572;52.378;13.404;2023-02-15T14:53:44;12.10;99.90
18880;DHT22;9572;52.378;13.404;2023-02-15T14:56:22;12.10;99.90
18880;DHT22;9572;52.378;13.404;2023-02-15T14:59:15;12.00;99.90
18880;DHT22;9572;52.378;13.404;2023-02-15T15:02:03;11.90;99.90
18880;DHT22;9572;52.378;13.404;2023-02-15T15:04:39;11.90;99.90
18880;DHT22;9572;52.378;13.404;2023-02-15T15:07:17;11.80;99.90
18880;DHT22;9572;52.378;13.404;2023-02-15T15:09:48;11.70;99.90
18880;DHT22;9572;52.378;13.404;2023-02-15T15:12:39;11.50;99.90
18880;DHT22;9572;52.378;13.404;2023-02-15T15:15:10;11.40;99.90
18880;DHT22;9572;52.378;13.404;2023-02-15T15:17:55;11.40;99.90
18880;DHT22;9572;52.378;13.404;2023-02-15T15:20:46;11.40;99.90
18880;DHT22;9572;52.378;13.404;2023-02-15T15:23:39;11.30;99.90
18880;DHT22;9572;52.378;13.404;2023-02-15T15:26:30;11.10;99.90
18880;DHT22;9572;52.378;13.404;2023-02-15T15:29:02;11.00;99.90
18880;DHT22;9572;52.378;13.404;2023-02-15T15:31:43;10.80;99.90
18880;DHT22;9572;52.378;13.404;2023-02-15T15:34:24;10.60;99.90
18880;DHT22;9572;52.378;13.404;2023-02-15T15:43:39;10.80;99.90
18880;DHT22;9572;52.378;13.404;2023-02-15T15:46:32;10.50;99.90
18880;DHT22;9572;52.378;13.404;2023-02-15T15:49:08;10.10;99.90
18880;DHT22;9572;52.378;13.404;2023-02-15T15:51:40;9.80;99.90
18880;DHT22;9572;52.378;13.404;2023-02-15T15:54:14;9.50;99.90
18880;DHT22;9572;52.378;13.404;2023-02-15T15:56:44;9.30;99.90
18880;DHT22;9572;52.378;13.404;2023-02-15T15:59:16;9.10;99.90
18880;DHT22;9572;52.378;13.404;2023-02-15T16:01:49;8.90;99.90
18880;DHT22;9572;52.378;13.404;2023-02-15T16:04:23;8.70;99.90
18880;DHT22;9572;52.378;13.404;2023-02-15T16:06:50;8.60;99.90
18880;DHT22;9572;52.378;13.404;2023-02-15T16:09:19;8.40;99.90
18880;DHT22;9572;52.378;13.404;2023-02-15T16:11:48;8.30;99.90
18880;DHT22;9572;52.378;13.404;2023-02-15T16:14:23;8.10;99.90
18880;DHT22;9572;52.378;13.404;2023-02-15T16:16:55;8.00;99.90
18880;DHT22;9572;52.378;13.404;2023-02-15T16:19:26;7.80;99.90
18880;DHT22;9572;52.378;13.404;2023-02-15T16:21:54;7.80;99.90
18880;DHT22;9572;52.378;13.404;2023-02-15T16:24:26;7.70;99.90
18880;DHT22;9572;52.378;13.404;2023-02-15T16:27:13;7.60;99.90
18880;DHT22;9572;52.378;13.404;2023-02-15T16:29:41;7.40;99.90
18880;DHT22;9572;52.378;13.404;2023-02-15T16:32:18;7.30;99.90
18880;DHT22;9572;52.378;13.404;2023-02-15T16:34:56;7.20;99.90
18880;DHT22;9572;52.378;13.404;2023-02-15T16:37:24;7.10;99.90